Time;durP1;ratioP1;P1;durP2;ratioP2;P2;SDS_P1;SDS_P2;PMS_P1;PMS_P2;Temp;Humidity;BMP_temperature;BMP_pressure;BME280_temperature;BME280_humidity;BME280_pressure;Samples;Min_cycle;Max_cycle;Signal;HPM_P1;HPM_P2
2022/09/04 00:02:38;;;;;;;4.63;2.77;;;12.40;99.90;;;;;;5095145;28;20596;-77
2022/09/04 00:05:15;;;;;;;3.33;2.70;;;12.30;99.90;;;;;;5095930;28;20276;-78
2022/09/04 00:08:09;;;;;;;3.73;2.57;;;12.30;99.90;;;;;;5095761;28;20214;-76
2022/09/04 00:10:46;;;;;;;3.17;2.60;;;12.30;99.90;;;;;;5095239;28;20252;-77
2022/09/04 00:13:21;;;;;;;5.43;2.87;;;12.30;99.90;;;;;;5095565;28;20282;-76
2022/09/04 00:15:55;;;;;;;3.03;2.67;;;12.20;99.90;;;;;;5095643;28;20206;-77
2022/09/04 00:18:34;;;;;;;3.27;2.30;;;12.20;99.90;;;;;;5095331;28;20194;-78
2022/09/04 00:21:09;;;;;;;5.23;2.50;;;12.20;99.90;;;;;;5095430;28;20218;-77
2022/09/04 00:23:42;;;;;;;4.17;2.60;;;12.20;99.90;;;;;;5095263;28;20315;-79
2022/09/04 00:26:18;;;;;;;5.57;2.93;;;12.10;99.90;;;;;;5095340;28;20297;-77
2022/09/04 00:28:54;;;;;;;3.90;2.57;;;12.10;99.90;;;;;;5094985;28;20194;-78
2022/09/04 00:31:29;;;;;;;4.90;2.87;;;12.10;99.90;;;;;;5094935;28;20257;-78
2022/09/04 00:34:12;;;;;;;3.93;3.07;;;12.10;99.90;;;;;;5095036;28;20245;-77
2022/09/04 00:36:45;;;;;;;3.23;2.70;;;12.10;99.90;;;;;;5095223;28;20210;-79
2022/09/04 00:39:24;;;;;;;3.63;2.93;;;12.10;99.90;;;;;;5094826;28;20214;-78
2022/09/04 00:42:05;;;;;;;3.00;2.70;;;12.00;99.90;;;;;;5095317;28;20275;-79
2022/09/04 00:44:55;;;;;;;2.80;2.60;;;12.00;99.90;;;;;;5094323;28;20660;-78
2022/09/04 00:47:50;;;;;;;5.73;2.63;;;12.00;99.90;;;;;;5094624;28;20298;-79
2022/09/04 00:50:53;;;;;;;3.20;2.90;;;12.00;99.90;;;;;;5094325;28;20187;-78
2022/09/04 00:54:10;;;;;;;4.00;2.53;;;12.00;99.90;;;;;;5083933;28;20207;-77
2022/09/04 00:57:08;;;;;;;5.57;2.60;;;12.00;99.90;;;;;;5099719;28;20297;-79
2022/09/04 01:00:03;;;;;;;3.13;2.67;;;12.00;99.90;;;;;;5094326;28;20277;-78
2022/09/04 01:02:48;;;;;;;4.57;3.17;;;12.00;99.90;;;;;;5093895;28;20231;-78
2022/09/04 01:05:33;;;;;;;3.53;2.47;;;11.90;99.90;;;;;;5094744;28;20282;-78
2022/09/04 01:08:10;;;;;;;6.50;2.93;;;11.90;99.90;;;;;;5094344;28;20207;-77
2022/09/04 01:10:59;;;;;;;4.73;2.83;;;11.90;99.90;;;;;;5094234;28;20191;-77
2022/09/04 01:13:36;;;;;;;5.10;2.80;;;11.90;99.90;;;;;;5094156;28;20679;-77
2022/09/04 01:16:10;;;;;;;3.63;2.67;;;11.90;99.90;;;;;;5094482;28;20606;-78
2022/09/04 01:18:51;;;;;;;3.80;2.80;;;11.90;99.90;;;;;;5094182;28;20225;-79
2022/09/04 01:22:00;;;;;;;5.43;2.67;;;11.90;99.90;;;;;;5094216;28;20284;-77
2022/09/04 01:24:54;;;;;;;3.07;2.83;;;11.80;99.90;;;;;;5094280;28;20202;-79
2022/09/04 01:27:28;;;;;;;6.17;3.00;;;11.80;99.90;;;;;;5094292;28;20282;-77
2022/09/04 01:30:04;;;;;;;6.30;2.90;;;11.80;99.90;;;;;;5093682;28;20260;-78
2022/09/04 01:32:42;;;;;;;3.67;2.97;;;11.90;99.90;;;;;;5094037;28;20347;-77
2022/09/04 01:35:22;;;;;;;3.47;2.87;;;11.80;99.90;;;;;;5094020;28;20287;-79
2022/09/04 01:37:59;;;;;;;5.97;3.20;;;11.80;99.90;;;;;;5093669;28;20191;-78
2022/09/04 01:40:36;;;;;;;4.90;2.90;;;11.80;99.90;;;;;;5093355;28;20637;-77
2022/09/04 01:43:11;;;;;;;4.07;2.83;;;11.80;99.90;;;;;;5094013;28;20206;-79
2022/09/04 01:46:08;;;;;;;4.90;2.80;;;11.80;99.90;;;;;;5093958;28;20269;-77
2022/09/04 01:48:44;;;;;;;3.53;2.67;;;11.80;99.90;;;;;;5080945;28;20268;-77
2022/09/04 01:51:24;;;;;;;3.17;2.80;;;11.80;99.90;;;;;;5093630;28;20186;-77
2022/09/04 01:54:03;;;;;;;2.50;2.30;;;11.90;99.90;;;;;;5093815;28;20210;-78
2022/09/04 01:56:37;;;;;;;4.97;2.70;;;11.90;99.90;;;;;;5093369;28;20229;-79
2022/09/04 01:59:15;;;;;;;4.83;2.80;;;11.90;99.90;;;;;;5092991;28;20236;-77
2022/09/04 02:01:53;;;;;;;4.23;2.80;;;11.90;99.90;;;;;;5092624;28;20237;-78
2022/09/04 02:04:28;;;;;;;3.30;2.87;;;11.90;99.90;;;;;;5092137;28;20214;-79
2022/09/04 02:07:09;;;;;;;4.37;2.60;;;11.90;99.90;;;;;;5092742;28;20197;-78
2022/09/04 02:09:47;;;;;;;4.13;3.00;;;11.90;99.90;;;;;;5086422;28;20191;-77
2022/09/04 02:12:28;;;;;;;4.00;2.90;;;11.90;99.90;;;;;;5093110;28;20220;-79
2022/09/04 02:15:06;;;;;;;3.27;2.70;;;11.90;99.90;;;;;;5092847;28;20203;-79
2022/09/04 02:17:44;;;;;;;4.57;2.80;;;11.80;99.90;;;;;;5093152;28;20715;-77
2022/09/04 02:20:25;;;;;;;4.70;2.83;;;11.90;99.90;;;;;;5092672;28;20764;-77
2022/09/04 02:23:10;;;;;;;3.43;2.70;;;11.90;99.90;;;;;;5093231;28;20621;-78
2022/09/04 02:25:49;;;;;;;6.33;2.97;;;11.90;99.90;;;;;;5093035;28;20228;-79
2022/09/04 02:28:30;;;;;;;4.20;2.50;;;11.90;99.90;;;;;;5093088;28;20286;-78
2022/09/04 02:31:15;;;;;;;4.03;2.87;;;11.90;99.90;;;;;;5092162;28;20242;-77
2022/09/04 02:33:49;;;;;;;4.27;2.37;;;11.90;99.90;;;;;;5092404;28;20191;-78
2022/09/04 02:36:23;;;;;;;5.57;2.73;;;11.90;99.90;;;;;;5092753;28;20215;-77
2022/09/04 02:39:02;;;;;;;6.77;2.70;;;11.90;99.90;;;;;;5092570;28;20281;-77
2022/09/04 02:41:36;;;;;;;5.47;2.63;;;11.90;99.90;;;;;;5091887;28;20751;-79
2022/09/04 02:44:21;;;;;;;5.87;2.80;;;11.90;99.90;;;;;;5092853;28;20626;-77
2022/09/04 02:47:04;;;;;;;4.13;2.57;;;11.90;99.90;;;;;;5092403;28;20298;-78
2022/09/04 02:49:41;;;;;;;4.90;3.07;;;11.90;99.90;;;;;;5092309;28;20191;-77
2022/09/04 02:52:26;;;;;;;3.60;2.43;;;11.80;99.90;;;;;;5092776;28;20195;-78
2022/09/04 02:55:11;;;;;;;3.07;2.77;;;11.80;99.90;;;;;;5092631;28;20194;-78
2022/09/04 02:58:03;;;;;;;3.97;2.60;;;11.80;99.90;;;;;;5092333;28;20665;-79
2022/09/04 03:00:40;;;;;;;3.90;2.77;;;11.80;99.90;;;;;;5092176;28;20211;-78
2022/09/04 03:03:17;;;;;;;3.30;2.60;;;11.80;99.90;;;;;;5092524;28;20531;-76
2022/09/04 03:05:56;;;;;;;4.30;2.90;;;11.70;99.90;;;;;;5092218;28;20648;-79
2022/09/04 03:08:30;;;;;;;6.50;2.67;;;11.70;99.90;;;;;;5092198;28;20302;-79
2022/09/04 03:11:16;;;;;;;6.63;3.07;;;11.70;99.90;;;;;;5092253;28;20187;-77
2022/09/04 03:13:50;;;;;;;3.27;2.70;;;11.70;99.90;;;;;;5092151;28;20283;-79
2022/09/04 03:16:24;;;;;;;3.00;2.70;;;11.70;99.90;;;;;;5092401;28;20618;-79
2022/09/04 03:19:07;;;;;;;3.63;2.57;;;11.60;99.90;;;;;;5092168;28;20241;-79
2022/09/04 03:21:46;;;;;;;5.10;2.90;;;11.60;99.90;;;;;;5092222;28;20214;-77
2022/09/04 03:24:21;;;;;;;5.80;2.97;;;11.60;99.90;;;;;;5092023;28;20190;-77
2022/09/04 03:26:52;;;;;;;3.90;2.70;;;11.60;99.90;;;;;;5095110;28;20216;-78
2022/09/04 03:29:34;;;;;;;3.17;2.80;;;11.60;99.90;;;;;;5095950;28;20304;-77
2022/09/04 03:32:15;;;;;;;3.87;3.10;;;11.60;99.90;;;;;;5096190;28;20640;-79
2022/09/04 03:34:52;;;;;;;3.60;2.87;;;11.60;99.90;;;;;;5096174;28;20222;-77
2022/09/04 03:37:35;;;;;;;4.60;3.33;;;11.60;99.90;;;;;;5096357;28;20194;-79
2022/09/04 03:40:27;;;;;;;5.70;3.00;;;11.60;99.90;;;;;;5095590;28;20696;-79
2022/09/04 03:43:14;;;;;;;4.53;2.90;;;11.60;99.90;;;;;;5094842;28;20261;-78
2022/09/04 03:45:49;;;;;;;4.83;2.80;;;11.70;99.90;;;;;;5096002;28;20237;-77
2022/09/04 03:48:41;;;;;;;3.33;2.80;;;11.70;99.90;;;;;;5106956;28;20226;-77
2022/09/04 03:51:24;;;;;;;3.90;3.10;;;11.70;99.90;;;;;;5096645;28;20209;-79
2022/09/04 03:54:04;;;;;;;3.10;2.80;;;11.70;99.90;;;;;;5096221;28;20260;-78
2022/09/04 03:56:48;;;;;;;5.57;3.10;;;11.70;99.90;;;;;;5095842;28;20257;-79
2022/09/04 03:59:30;;;;;;;3.30;2.90;;;11.80;99.90;;;;;;5095957;28;20195;-79
2022/09/04 04:02:12;;;;;;;3.60;2.73;;;11.80;99.90;;;;;;5095349;28;20266;-78
2022/09/04 04:05:13;;;;;;;6.10;3.40;;;11.80;99.90;;;;;;5095905;28;20194;-77
2022/09/04 04:07:56;;;;;;;6.53;3.20;;;11.80;99.90;;;;;;5095842;28;20533;-79
2022/09/04 04:10:32;;;;;;;4.77;3.20;;;11.80;99.90;;;;;;5095156;28;20610;-79
2022/09/04 04:13:25;;;;;;;4.83;3.30;;;11.90;99.90;;;;;;5095244;28;20297;-78
2022/09/04 04:16:05;;;;;;;3.90;2.90;;;11.90;99.90;;;;;;5095653;28;20195;-79
2022/09/04 04:19:15;;;;;;;4.30;3.00;;;11.90;99.90;;;;;;5095485;28;20206;-77
2022/09/04 04:21:55;;;;;;;3.00;2.70;;;11.90;99.90;;;;;;5084597;28;20269;-78
2022/09/04 04:24:44;;;;;;;4.23;2.90;;;11.90;99.90;;;;;;5095160;28;20217;-78
2022/09/04 04:27:32;;;;;;;3.67;2.70;;;12.00;99.90;;;;;;5092776;28;20635;-78
2022/09/04 04:30:08;;;;;;;3.67;3.30;;;12.00;99.90;;;;;;5094869;28;20227;-78
2022/09/04 04:33:07;;;;;;;5.50;3.10;;;12.00;99.90;;;;;;5095369;28;20191;-79
2022/09/04 04:35:47;;;;;;;4.93;3.50;;;12.10;99.90;;;;;;5095160;28;20213;-80
2022/09/04 04:38:46;;;;;;;4.63;3.40;;;12.10;99.90;;;;;;5094953;28;20213;-78
2022/09/04 04:41:27;;;;;;;6.27;3.13;;;12.10;99.90;;;;;;5094856;28;20693;-79
2022/09/04 04:44:06;;;;;;;3.43;3.13;;;12.10;99.90;;;;;;5095098;28;20273;-79
2022/09/04 04:46:50;;;;;;;4.67;3.03;;;12.10;99.90;;;;;;5094661;28;20289;-78
2022/09/04 04:49:37;;;;;;;5.93;3.10;;;12.20;99.90;;;;;;5094356;28;20202;-78
2022/09/04 04:52:20;;;;;;;4.03;2.77;;;12.20;99.90;;;;;;5076630;28;20238;-80
2022/09/04 04:55:05;;;;;;;4.60;2.60;;;12.20;99.90;;;;;;5094814;28;20225;-78
2022/09/04 04:57:45;;;;;;;5.77;2.80;;;12.30;99.90;;;;;;5094632;28;20575;-78
2022/09/04 05:00:18;;;;;;;3.70;2.60;;;12.30;99.90;;;;;;5094244;28;20305;-78
2022/09/04 05:03:04;;;;;;;5.00;2.73;;;12.30;99.90;;;;;;5094763;28;20199;-78
2022/09/04 05:06:01;;;;;;;7.03;2.80;;;12.30;99.90;;;;;;5094733;28;20224;-78
2022/09/04 05:08:40;;;;;;;4.40;2.60;;;12.40;99.90;;;;;;5089642;28;20297;-80
2022/09/04 05:11:18;;;;;;;4.10;2.80;;;12.40;99.90;;;;;;5094439;28;20191;-79
2022/09/04 05:14:06;;;;;;;4.47;2.73;;;12.50;99.90;;;;;;5094261;28;20633;-79
2022/09/04 05:16:47;;;;;;;2.67;2.37;;;12.50;99.90;;;;;;5094131;28;20213;-78
2022/09/04 05:19:32;;;;;;;6.80;2.60;;;12.60;99.90;;;;;;5094330;28;20199;-78
2022/09/04 05:22:11;;;;;;;2.50;2.30;;;12.60;99.90;;;;;;5094359;28;20222;-78
2022/09/04 05:24:50;;;;;;;2.60;2.40;;;12.60;99.90;;;;;;5094117;28;20194;-78
2022/09/04 05:27:47;;;;;;;4.97;2.33;;;12.70;99.90;;;;;;5094314;28;20201;-80
2022/09/04 05:30:21;;;;;;;2.80;2.20;;;12.70;99.90;;;;;;5094034;28;20217;-78
2022/09/04 05:32:57;;;;;;;3.33;2.27;;;12.70;99.90;;;;;;5096019;28;20240;-78
2022/09/04 05:35:41;;;;;;;6.50;2.50;;;12.80;99.90;;;;;;5094322;28;20563;-79
2022/09/04 05:38:18;;;;;;;3.37;2.20;;;12.90;99.90;;;;;;5094254;28;20618;-78
2022/09/04 05:41:03;;;;;;;4.30;2.20;;;12.90;99.90;;;;;;5092715;28;20211;-78
2022/09/04 05:43:48;;;;;;;2.30;2.10;;;13.00;99.90;;;;;;5081285;28;20297;-78
2022/09/04 05:46:34;;;;;;;3.70;2.20;;;13.10;99.90;;;;;;5101592;28;20199;-79
2022/09/04 05:49:16;;;;;;;2.40;2.00;;;13.10;99.90;;;;;;5089536;28;20304;-78
2022/09/04 05:52:13;;;;;;;4.57;2.30;;;13.20;99.90;;;;;;5094077;28;20620;-78
2022/09/04 05:55:05;;;;;;;2.57;1.80;;;13.30;99.90;;;;;;5085109;28;20207;-79
2022/09/04 05:57:54;;;;;;;4.53;2.53;;;13.30;99.90;;;;;;5093782;28;20191;-79
2022/09/04 06:00:23;;;;;;;2.00;1.90;;;13.40;99.90;;;;;;5093039;28;20233;-79
2022/09/04 06:03:33;;;;;;;3.53;1.90;;;13.40;99.90;;;;;;5093315;28;20655;-80
2022/09/04 06:06:10;;;;;;;2.47;1.70;;;13.50;99.90;;;;;;5084086;28;20298;-79
2022/09/04 06:08:58;;;;;;;1.83;1.73;;;13.50;99.90;;;;;;5093497;28;20218;-80
2022/09/04 06:12:02;;;;;;;2.30;2.03;;;13.60;99.90;;;;;;5093018;28;20740;-80
2022/09/04 06:15:02;;;;;;;3.80;1.70;;;13.60;99.90;;;;;;5092943;28;20207;-77
2022/09/04 06:18:15;;;;;;;3.73;1.90;;;13.80;99.90;;;;;;5093203;28;20214;-78
2022/09/04 06:21:09;;;;;;;2.83;1.73;;;13.90;99.90;;;;;;5077323;28;20210;-79
2022/09/04 06:24:07;;;;;;;2.13;1.93;;;14.00;99.90;;;;;;5092994;28;20254;-78
2022/09/04 06:27:09;;;;;;;1.93;1.73;;;14.10;99.90;;;;;;5092693;28;20637;-78
2022/09/04 06:30:06;;;;;;;1.90;1.70;;;14.20;99.90;;;;;;5088395;28;20261;-80
2022/09/04 06:32:52;;;;;;;2.50;1.63;;;14.30;99.90;;;;;;5088011;28;20748;-79
2022/09/04 06:35:45;;;;;;;3.10;1.80;;;14.40;99.90;;;;;;5098199;28;20342;-78
2022/09/04 06:38:36;;;;;;;1.70;1.60;;;14.50;99.90;;;;;;5094579;28;20285;-79
2022/09/04 06:41:28;;;;;;;3.50;1.87;;;14.70;99.90;;;;;;5090621;28;21097;-80
2022/09/04 06:44:07;;;;;;;4.77;1.90;;;14.70;99.90;;;;;;5088468;28;20238;-80
2022/09/04 06:46:41;;;;;;;2.00;1.70;;;14.70;99.90;;;;;;5083855;28;20638;-79
2022/09/04 06:49:21;;;;;;;2.27;2.00;;;14.80;99.90;;;;;;5091888;28;20234;-79
2022/09/04 06:52:06;;;;;;;1.77;1.63;;;14.90;99.90;;;;;;5090872;28;20255;-79
2022/09/04 06:54:47;;;;;;;3.60;1.70;;;14.90;99.90;;;;;;5085479;28;20199;-78
2022/09/04 06:57:47;;;;;;;3.20;1.70;;;15.10;99.90;;;;;;5096337;28;20679;-78
2022/09/04 07:00:19;;;;;;;2.13;1.63;;;15.20;99.90;;;;;;5085990;28;20203;-78
2022/09/04 07:03:15;;;;;;;2.67;2.00;;;15.40;99.90;;;;;;5093031;28;20222;-79
2022/09/04 07:05:54;;;;;;;2.67;1.90;;;15.70;99.90;;;;;;5072345;28;20228;-78
2022/09/04 07:08:37;;;;;;;2.37;1.70;;;16.00;99.90;;;;;;5072027;28;20278;-78
2022/09/04 07:11:20;;;;;;;3.73;1.63;;;16.10;99.90;;;;;;5080625;28;20299;-78
2022/09/04 07:14:16;;;;;;;2.53;1.40;;;16.30;99.90;;;;;;5094669;28;20285;-76
2022/09/04 07:16:54;;;;;;;3.90;1.67;;;16.60;99.90;;;;;;5091876;28;20242;-78
2022/09/04 07:19:48;;;;;;;3.27;1.40;;;17.20;99.90;;;;;;5091834;28;20278;-77
2022/09/04 07:22:39;;;;;;;1.40;1.30;;;18.30;99.90;;;;;;5100116;28;20226;-79
2022/09/04 07:25:17;;;;;;;1.30;1.20;;;19.80;99.90;;;;;;5101840;28;20650;-78
2022/09/04 07:28:04;;;;;;;1.20;1.20;;;21.50;99.90;;;;;;5074697;28;20717;-79
2022/09/04 07:30:39;;;;;;;1.60;1.20;;;22.70;99.90;;;;;;5103311;28;20218;-78
2022/09/04 07:33:19;;;;;;;3.40;1.35;;;24.30;99.90;;;;;;5091475;28;20193;-78
2022/09/04 07:35:55;;;;;;;2.70;1.30;;;25.10;99.90;;;;;;5103147;28;20564;-78
2022/09/04 07:38:33;;;;;;;2.88;1.30;;;25.70;99.90;;;;;;5091619;28;20636;-79
2022/09/04 07:41:08;;;;;;;1.40;1.30;;;26.40;99.90;;;;;;5088757;28;20672;-78
2022/09/04 07:43:44;;;;;;;2.35;1.25;;;26.90;99.90;;;;;;5085593;28;20329;-78
2022/09/04 07:46:20;;;;;;;2.45;1.30;;;27.60;99.90;;;;;;5098759;28;20210;-78
2022/09/04 07:48:54;;;;;;;7.03;1.40;;;28.10;99.90;;;;;;5092111;28;20209;-79
2022/09/04 07:51:28;;;;;;;1.75;1.35;;;28.10;99.90;;;;;;5096347;28;20306;-80
2022/09/04 07:54:26;;;;;;;1.95;1.30;;;28.20;99.90;;;;;;5104577;28;20229;-79
2022/09/04 07:57:17;;;;;;;1.33;1.08;;;29.10;99.60;;;;;;5103566;28;20230;-78
2022/09/04 08:00:03;;;;;;;4.07;1.35;;;29.30;98.60;;;;;;5102032;28;20285;-79
2022/09/04 08:02:45;;;;;;;1.67;1.30;;;29.00;99.50;;;;;;5103531;28;20280;-81
2022/09/04 08:05:23;;;;;;;3.58;1.38;;;29.40;97.40;;;;;;5076128;28;20248;-80
2022/09/04 08:08:14;;;;;;;1.88;1.60;;;29.70;96.30;;;;;;5079299;28;20305;-79
2022/09/04 08:11:06;;;;;;;3.70;1.30;;;29.20;97.30;;;;;;5073571;28;20290;-82
2022/09/04 08:14:00;;;;;;;2.15;1.35;;;30.10;96.50;;;;;;5084980;28;20278;-80
2022/09/04 08:16:38;;;;;;;2.92;1.30;;;30.70;95.80;;;;;;5116651;28;20293;-79
2022/09/04 08:19:23;;;;;;;2.15;1.30;;;30.60;94.00;;;;;;5115497;28;20232;-80
2022/09/04 08:21:54;;;;;;;2.40;1.60;;;30.50;95.30;;;;;;5105346;28;20286;-82
2022/09/04 08:24:52;;;;;;;3.47;1.48;;;29.80;95.10;;;;;;5096384;28;20318;-80
2022/09/04 08:27:40;;;;;;;1.95;1.40;;;30.50;95.60;;;;;;5101271;28;20226;-83
2022/09/04 08:30:17;;;;;;;1.67;1.40;;;30.70;94.00;;;;;;5115578;28;20279;-81
2022/09/04 08:33:21;;;;;;;2.28;1.48;;;30.90;94.10;;;;;;5116000;28;20561;-81
2022/09/04 08:35:59;;;;;;;3.97;1.50;;;30.90;94.40;;;;;;5098376;28;20285;-83
2022/09/04 08:38:40;;;;;;;1.67;1.58;;;31.30;93.70;;;;;;5115201;28;20229;-80
2022/09/04 08:41:51;;;;;;;3.95;1.55;;;30.50;93.40;;;;;;5092513;28;20199;-80
2022/09/04 08:45:02;;;;;;;3.28;1.40;;;30.40;94.00;;;;;;5053067;28;20266;-80
2022/09/04 08:47:55;;;;;;;3.47;1.58;;;30.90;93.10;;;;;;5070787;28;20198;-81
2022/09/04 08:50:52;;;;;;;1.70;1.60;;;31.00;93.10;;;;;;5097751;28;20207;-80
2022/09/04 08:53:46;;;;;;;1.77;1.50;;;31.10;92.80;;;;;;5096318;28;20194;-79
2022/09/04 08:56:24;;;;;;;3.63;1.63;;;31.60;93.40;;;;;;5097331;28;20237;-80
2022/09/04 08:59:27;;;;;;;2.15;1.50;;;31.50;94.00;;;;;;5101086;28;20194;-79
2022/09/04 09:02:35;;;;;;;2.30;1.77;;;31.00;94.40;;;;;;5096991;28;20245;-80
2022/09/04 09:05:52;;;;;;;3.33;1.98;;;30.60;93.50;;;;;;5097975;28;20207;-79
2022/09/04 09:09:01;;;;;;;1.95;1.85;;;31.00;94.10;;;;;;5110915;28;20230;-80
2022/09/04 09:11:55;;;;;;;2.38;1.80;;;30.80;94.00;;;;;;5095304;28;20219;-80
2022/09/04 09:14:53;;;;;;;2.20;2.00;;;30.90;94.70;;;;;;5094917;28;20250;-81
2022/09/04 09:17:36;;;;;;;2.53;2.10;;;30.70;93.50;;;;;;5095099;28;20273;-80
2022/09/04 09:20:25;;;;;;;2.20;2.00;;;30.60;94.00;;;;;;5087711;28;20617;-81
2022/09/04 09:23:17;;;;;;;3.90;2.25;;;30.20;95.20;;;;;;5093970;28;20261;-80
2022/09/04 09:25:52;;;;;;;3.72;2.13;;;30.90;93.70;;;;;;5094622;28;20293;-81
2022/09/04 09:28:54;;;;;;;2.25;2.05;;;31.20;93.90;;;;;;5092539;28;20191;-80
2022/09/04 09:32:13;;;;;;;3.13;2.00;;;32.30;92.90;;;;;;5095426;28;20229;-80
2022/09/04 09:35:23;;;;;;;4.30;2.10;;;31.30;93.80;;;;;;5090267;28;20207;-82
2022/09/04 09:38:31;;;;;;;2.65;2.20;;;31.60;93.10;;;;;;5096372;28;20234;-82
2022/09/04 09:41:28;;;;;;;2.92;2.03;;;31.50;92.70;;;;;;5072848;28;20293;-80
2022/09/04 09:44:38;;;;;;;3.20;2.40;;;30.30;95.70;;;;;;5095070;28;20252;-80
2022/09/04 09:47:44;;;;;;;2.10;1.90;;;30.90;94.60;;;;;;5094018;28;20203;-80
2022/09/04 09:50:56;;;;;;;3.50;2.25;;;31.60;93.20;;;;;;5093457;28;20211;-81
2022/09/04 09:54:11;;;;;;;2.45;2.10;;;31.30;93.70;;;;;;5093901;28;20289;-80
2022/09/04 09:57:16;;;;;;;2.22;1.95;;;31.90;92.90;;;;;;5095309;28;20641;-81
2022/09/04 10:00:12;;;;;;;2.15;1.90;;;31.30;94.10;;;;;;5094128;28;20231;-79
2022/09/04 10:03:14;;;;;;;1.83;1.70;;;31.30;93.90;;;;;;5087510;28;20236;-80
2022/09/04 10:06:12;;;;;;;1.70;1.60;;;31.40;92.90;;;;;;5095485;28;20568;-78
2022/09/04 10:09:28;;;;;;;4.35;2.03;;;31.60;92.20;;;;;;5093593;28;20605;-81
2022/09/04 10:12:22;;;;;;;1.70;1.60;;;31.50;92.60;;;;;;5093801;28;20354;-79
2022/09/04 10:15:28;;;;;;;3.95;1.60;;;32.20;92.70;;;;;;5093453;28;20229;-80
2022/09/04 10:18:44;;;;;;;2.25;1.50;;;32.10;91.80;;;;;;5087534;28;20242;-81
2022/09/04 10:21:48;;;;;;;1.80;1.70;;;32.00;92.00;;;;;;5084976;28;20215;-79
2022/09/04 10:24:52;;;;;;;2.40;1.60;;;31.50;91.90;;;;;;5094854;28;20206;-84
2022/09/04 10:27:59;;;;;;;1.50;1.40;;;30.30;92.40;;;;;;5073418;28;20302;-80
2022/09/04 10:30:53;;;;;;;1.52;1.38;;;29.90;93.70;;;;;;5093404;28;20261;-79
2022/09/04 10:33:35;;;;;;;1.48;1.38;;;29.30;94.20;;;;;;5093659;28;20195;-79
2022/09/04 10:36:18;;;;;;;2.00;1.65;;;29.80;94.70;;;;;;5093130;28;20337;-80
2022/09/04 10:42:01;;;;;;;1.63;1.50;;;30.80;93.60;;;;;;5093143;28;20244;-80
2022/09/04 10:44:54;;;;;;;1.65;1.48;;;29.70;93.70;;;;;;5093089;28;20233;-79
2022/09/04 10:47:36;;;;;;;1.40;1.30;;;30.50;94.70;;;;;;5085706;28;20257;-79
2022/09/04 10:50:15;;;;;;;3.13;1.50;;;30.00;94.20;;;;;;5092363;28;20222;-80
2022/09/04 10:53:28;;;;;;;2.72;1.30;;;29.30;94.40;;;;;;5092870;28;20867;-79
2022/09/04 10:56:15;;;;;;;1.33;1.23;;;29.30;95.90;;;;;;5073566;28;20206;-78
2022/09/04 10:59:17;;;;;;;2.63;1.60;;;30.30;93.10;;;;;;5093248;28;20195;-80
2022/09/04 11:02:22;;;;;;;1.45;1.35;;;31.00;91.90;;;;;;5091172;28;20698;-79
2022/09/04 11:05:28;;;;;;;2.78;1.30;;;31.00;91.70;;;;;;5092279;28;20229;-80
2022/09/04 11:08:34;;;;;;;1.30;1.20;;;31.80;90.90;;;;;;5092810;28;20328;-84
2022/09/04 11:11:23;;;;;;;1.65;1.30;;;32.20;90.60;;;;;;5093568;28;20277;-81
2022/09/04 11:14:33;;;;;;;3.70;1.20;;;32.40;87.10;;;;;;5092992;28;20286;-80
2022/09/04 11:17:29;;;;;;;1.50;1.20;;;32.00;88.70;;;;;;5092431;28;20203;-80
2022/09/04 11:20:54;;;;;;;1.30;1.20;;;31.90;88.20;;;;;;5083850;28;20289;-79
2022/09/04 11:24:01;;;;;;;2.72;1.20;;;31.70;88.10;;;;;;5092335;28;20253;-79
2022/09/04 11:27:00;;;;;;;1.00;1.00;;;30.80;89.60;;;;;;5091266;28;20293;-79
2022/09/04 11:30:01;;;;;;;0.95;0.90;;;31.60;87.60;;;;;;5091847;28;20210;-80
2022/09/04 11:33:12;;;;;;;1.85;1.20;;;30.90;90.30;;;;;;5092462;28;20191;-79
2022/09/04 11:36:12;;;;;;;1.77;1.20;;;30.70;88.20;;;;;;5093894;28;20290;-81
2022/09/04 11:39:24;;;;;;;1.30;1.20;;;29.70;90.10;;;;;;5091511;28;20318;-80
2022/09/04 11:42:40;;;;;;;1.30;1.20;;;28.20;91.70;;;;;;5091967;28;20278;-80
2022/09/04 11:45:47;;;;;;;2.43;1.20;;;28.40;91.50;;;;;;5092206;28;20211;-80
2022/09/04 11:48:53;;;;;;;1.73;1.10;;;28.60;92.30;;;;;;5095627;28;20848;-79
2022/09/04 11:51:41;;;;;;;1.30;1.20;;;28.80;92.50;;;;;;5080369;28;20242;-78
2022/09/04 11:54:29;;;;;;;1.20;1.10;;;28.30;92.60;;;;;;5096097;28;20219;-80
2022/09/04 11:57:07;;;;;;;1.83;1.00;;;28.30;90.70;;;;;;5095979;28;20294;-80
2022/09/04 12:00:08;;;;;;;1.30;1.20;;;27.60;91.90;;;;;;5095909;28;20289;-78
2022/09/04 12:03:20;;;;;;;1.37;1.27;;;27.40;93.80;;;;;;5095854;28;20260;-79
2022/09/04 12:06:07;;;;;;;1.30;1.20;;;26.80;94.10;;;;;;5071167;28;20321;-80
2022/09/04 12:09:02;;;;;;;1.30;1.20;;;26.80;95.80;;;;;;5095980;28;20219;-78
2022/09/04 12:11:59;;;;;;;1.67;1.40;;;26.40;96.40;;;;;;5095651;28;20206;-78
2022/09/04 12:15:04;;;;;;;1.33;1.23;;;26.00;97.40;;;;;;5095780;28;20258;-78
2022/09/04 12:18:15;;;;;;;1.80;1.20;;;26.00;96.70;;;;;;5078736;28;20295;-78
2022/09/04 12:20:56;;;;;;;1.57;1.30;;;26.20;95.70;;;;;;5095555;28;20281;-79
2022/09/04 12:23:33;;;;;;;2.43;1.23;;;26.60;94.50;;;;;;5096121;28;20282;-79
2022/09/04 12:26:22;;;;;;;2.97;1.23;;;26.20;95.90;;;;;;5096888;28;20226;-81
2022/09/04 12:29:22;;;;;;;2.00;1.30;;;25.30;95.00;;;;;;5095377;28;20285;-79
2022/09/04 12:32:20;;;;;;;1.63;1.00;;;25.20;97.20;;;;;;5095808;28;20217;-80
2022/09/04 12:35:28;;;;;;;1.87;1.20;;;25.10;99.30;;;;;;5096105;28;20266;-77
2022/09/04 12:38:34;;;;;;;1.40;1.23;;;25.20;99.90;;;;;;5086328;28;20706;-78
2022/09/04 12:41:09;;;;;;;1.57;1.40;;;25.20;99.90;;;;;;5094971;28;20250;-79
2022/09/04 12:43:50;;;;;;;1.50;1.40;;;24.90;99.90;;;;;;5094941;28;20710;-79
2022/09/04 12:46:34;;;;;;;2.07;1.50;;;24.70;99.90;;;;;;5094987;28;20688;-80
2022/09/04 12:49:26;;;;;;;3.13;1.40;;;25.00;99.90;;;;;;5095258;28;20234;-79
2022/09/04 12:52:05;;;;;;;1.73;1.47;;;25.60;99.90;;;;;;5094882;28;20257;-77
2022/09/04 12:54:42;;;;;;;1.40;1.30;;;26.30;99.90;;;;;;5095444;28;20248;-78
2022/09/04 12:57:24;;;;;;;2.77;1.40;;;26.30;99.90;;;;;;5095142;28;20219;-78
2022/09/04 13:00:06;;;;;;;1.93;1.43;;;26.20;99.90;;;;;;5094834;28;20254;-77
2022/09/04 13:02:45;;;;;;;2.00;1.17;;;25.90;99.90;;;;;;5094568;28;20228;-78
2022/09/04 13:05:34;;;;;;;2.67;1.50;;;26.20;99.90;;;;;;5094715;28;20232;-80
2022/09/04 13:08:25;;;;;;;2.60;1.53;;;26.50;99.90;;;;;;5094293;28;20237;-78
2022/09/04 13:11:06;;;;;;;2.67;1.40;;;26.30;99.90;;;;;;5094070;28;20209;-78
2022/09/04 13:13:48;;;;;;;1.77;1.40;;;26.40;99.90;;;;;;5094792;28;20214;-79
2022/09/04 13:16:22;;;;;;;1.97;1.40;;;26.30;98.90;;;;;;5094722;28;20218;-80
2022/09/04 13:19:02;;;;;;;1.53;1.40;;;25.60;99.90;;;;;;5094339;28;20217;-78
2022/09/04 13:21:47;;;;;;;1.63;1.10;;;25.50;99.90;;;;;;5094419;28;20256;-79
2022/09/04 13:24:27;;;;;;;2.53;1.27;;;25.90;99.90;;;;;;5094495;28;20193;-77
2022/09/04 13:27:14;;;;;;;1.50;1.40;;;26.10;99.20;;;;;;5094480;28;20214;-78
2022/09/04 13:30:00;;;;;;;4.13;1.17;;;26.10;99.90;;;;;;5093945;28;20250;-79
2022/09/04 13:33:05;;;;;;;4.83;1.23;;;26.10;99.90;;;;;;5094291;28;20207;-77
2022/09/04 13:35:42;;;;;;;1.67;1.37;;;26.40;98.90;;;;;;5094021;28;20256;-80
2022/09/04 13:38:38;;;;;;;2.00;1.40;;;26.60;97.60;;;;;;5095285;28;20264;-79
2022/09/04 13:41:22;;;;;;;2.00;1.17;;;26.70;97.40;;;;;;5075656;28;20286;-78
2022/09/04 13:44:14;;;;;;;1.40;1.30;;;26.80;94.00;;;;;;5093519;28;20199;-80
2022/09/04 13:46:49;;;;;;;2.03;1.40;;;26.80;96.50;;;;;;5094119;28;20221;-78
2022/09/04 13:49:26;;;;;;;1.50;1.30;;;26.80;94.20;;;;;;5094564;28;20217;-78
2022/09/04 13:52:00;;;;;;;1.80;1.17;;;27.00;94.70;;;;;;5093321;28;20728;-77
2022/09/04 13:54:33;;;;;;;1.97;1.17;;;27.00;95.90;;;;;;5093424;28;20288;-79
2022/09/04 13:57:09;;;;;;;3.30;1.40;;;26.40;95.50;;;;;;5093928;28;20183;-78
2022/09/04 13:59:38;;;;;;;2.13;1.40;;;26.00;98.00;;;;;;5093857;28;20207;-76
2022/09/04 14:02:14;;;;;;;1.20;1.20;;;25.80;99.00;;;;;;5093410;28;20211;-78
2022/09/04 14:04:46;;;;;;;1.97;1.50;;;25.50;99.90;;;;;;5093583;28;20651;-78
2022/09/04 14:07:23;;;;;;;2.43;1.30;;;25.30;99.90;;;;;;5093300;28;20611;-77
2022/09/04 14:09:54;;;;;;;4.63;1.30;;;24.70;99.60;;;;;;5092129;28;20238;-76
2022/09/04 14:12:42;;;;;;;1.50;1.40;;;24.40;99.90;;;;;;5093365;28;20586;-78
2022/09/04 14:15:33;;;;;;;2.10;1.47;;;24.20;99.90;;;;;;5092873;28;20658;-78
2022/09/04 14:18:20;;;;;;;1.40;1.30;;;24.30;99.90;;;;;;5092971;28;20195;-77
2022/09/04 14:20:56;;;;;;;2.90;1.30;;;24.50;99.90;;;;;;5092787;28;20242;-76
2022/09/04 14:23:38;;;;;;;4.47;1.50;;;24.60;99.90;;;;;;5092712;28;20586;-78
2022/09/04 14:26:16;;;;;;;4.73;1.50;;;24.50;99.80;;;;;;5092771;28;20236;-76
2022/09/04 14:28:48;;;;;;;2.47;1.40;;;24.90;99.90;;;;;;5093111;28;20290;-76
2022/09/04 14:31:30;;;;;;;2.93;1.57;;;25.10;99.90;;;;;;5092726;28;20214;-79
2022/09/04 14:34:28;;;;;;;1.97;1.33;;;24.80;99.90;;;;;;5092924;28;20225;-78
2022/09/04 14:37:08;;;;;;;1.47;1.10;;;24.90;99.10;;;;;;5092911;28;20214;-80